sensor_id;sensor_type;location;lat;lon;timestamp;temperature;humidity
14670;DHT22;7423;48.722;9.350;2023-02-26T00:01:29;4.60;99.90
14670;DHT22;7423;48.722;9.350;2023-02-26T00:04:01;4.60;99.90
14670;DHT22;7423;48.722;9.350;2023-02-26T00:06:31;4.60;99.90
14670;DHT22;7423;48.722;9.350;2023-02-26T00:09:00;4.60;99.90
14670;DHT22;7423;48.722;9.350;2023-02-26T00:11:27;4.60;99.90
14670;DHT22;7423;48.722;9.350;2023-02-26T00:13:54;4.50;99.90
14670;DHT22;7423;48.722;9.350;2023-02-26T00:16:30;4.60;99.90
14670;DHT22;7423;48.722;9.350;2023-02-26T00:19:02;4.60;99.90
14670;DHT22;7423;48.722;9.350;2023-02-26T00:21:32;4.60;99.90
14670;DHT22;7423;48.722;9.350;2023-02-26T00:24:00;4.60;99.90
14670;DHT22;7423;48.722;9.350;2023-02-26T00:26:29;4.60;99.90
14670;DHT22;7423;48.722;9.350;2023-02-26T00:28:57;4.60;99.90
14670;DHT22;7423;48.722;9.350;2023-02-26T00:31:24;4.60;99.90
14670;DHT22;7423;48.722;9.350;2023-02-26T00:33:54;4.50;99.90
14670;DHT22;7423;48.722;9.350;2023-02-26T00:39:43;4.50;99.90
14670;DHT22;7423;48.722;9.350;2023-02-26T00:42:34;4.30;99.90
14670;DHT22;7423;48.722;9.350;2023-02-26T00:45:02;4.10;99.90
14670;DHT22;7423;48.722;9.350;2023-02-26T00:47:49;4.20;99.90
14670;DHT22;7423;48.722;9.350;2023-02-26T00:50:25;4.20;99.90
14670;DHT22;7423;48.722;9.350;2023-02-26T00:55:50;4.10;99.90
14670;DHT22;7423;48.722;9.350;2023-02-26T00:58:17;4.20;99.90
14670;DHT22;7423;48.722;9.350;2023-02-26T01:00:44;4.20;99.90
14670;DHT22;7423;48.722;9.350;2023-02-26T01:03:11;4.20;99.90
14670;DHT22;7423;48.722;9.350;2023-02-26T01:05:38;4.10;99.90
14670;DHT22;7423;48.722;9.350;2023-02-26T01:08:22;3.90;99.90
14670;DHT22;7423;48.722;9.350;2023-02-26T01:10:53;3.80;99.90
14670;DHT22;7423;48.722;9.350;2023-02-26T01:13:20;3.80;99.90
14670;DHT22;7423;48.722;9.350;2023-02-26T01:15:51;3.60;99.90
14670;DHT22;7423;48.722;9.350;2023-02-26T01:18:36;3.50;99.90
14670;DHT22;7423;48.722;9.350;2023-02-26T01:21:08;3.60;99.90
14670;DHT22;7423;48.722;9.350;2023-02-26T01:23:41;3.70;99.90
14670;DHT22;7423;48.722;9.350;2023-02-26T01:26:22;3.80;99.90
14670;DHT22;7423;48.722;9.350;2023-02-26T01:28:52;3.80;99.90
14670;DHT22;7423;48.722;9.350;2023-02-26T01:31:42;3.90;99.90
14670;DHT22;7423;48.722;9.350;2023-02-26T01:34:20;3.70;99.90
14670;DHT22;7423;48.722;9.350;2023-02-26T01:37:03;3.80;99.90
14670;DHT22;7423;48.722;9.350;2023-02-26T01:39:48;4.00;99.90
14670;DHT22;7423;48.722;9.350;2023-02-26T01:42:38;4.00;99.90
14670;DHT22;7423;48.722;9.350;2023-02-26T01:45:16;4.00;99.90
14670;DHT22;7423;48.722;9.350;2023-02-26T01:48:04;4.00;99.90
14670;DHT22;7423;48.722;9.350;2023-02-26T01:50:38;4.00;99.90
14670;DHT22;7423;48.722;9.350;2023-02-26T01:53:19;4.10;99.90
14670;DHT22;7423;48.722;9.350;2023-02-26T01:56:00;4.10;99.90
14670;DHT22;7423;48.722;9.350;2023-02-26T01:58:33;4.10;99.90
14670;DHT22;7423;48.722;9.350;2023-02-26T02:01:02;4.10;99.90
14670;DHT22;7423;48.722;9.350;2023-02-26T02:03:34;4.20;99.90
14670;DHT22;7423;48.722;9.350;2023-02-26T02:06:08;4.20;99.90
14670;DHT22;7423;48.722;9.350;2023-02-26T02:08:39;4.20;99.90
14670;DHT22;7423;48.722;9.350;2023-02-26T02:11:09;4.20;99.90
14670;DHT22;7423;48.722;9.350;2023-02-26T02:16:47;4.10;99.90
14670;DHT22;7423;48.722;9.350;2023-02-26T02:19:42;4.00;99.90
14670;DHT22;7423;48.722;9.350;2023-02-26T02:29:27;4.00;99.90
14670;DHT22;7423;48.722;9.350;2023-02-26T02:32:27;4.00;99.90
14670;DHT22;7423;48.722;9.350;2023-02-26T02:35:37;4.00;99.90
14670;DHT22;7423;48.722;9.350;2023-02-26T02:40:47;3.90;99.90
14670;DHT22;7423;48.722;9.350;2023-02-26T02:43:21;3.90;99.90
14670;DHT22;7423;48.722;9.350;2023-02-26T02:45:52;3.90;99.90
14670;DHT22;7423;48.722;9.350;2023-02-26T02:48:26;3.90;99.90
14670;DHT22;7423;48.722;9.350;2023-02-26T02:51:09;3.80;99.90
14670;DHT22;7423;48.722;9.350;2023-02-26T02:53:49;3.80;99.90
14670;DHT22;7423;48.722;9.350;2023-02-26T02:56:23;3.70;99.90
14670;DHT22;7423;48.722;9.350;2023-02-26T02:59:10;3.70;99.90
14670;DHT22;7423;48.722;9.350;2023-02-26T03:01:43;3.70;99.90
14670;DHT22;7423;48.722;9.350;2023-02-26T03:04:13;3.60;99.90
14670;DHT22;7423;48.722;9.350;2023-02-26T03:06:42;3.70;99.90
14670;DHT22;7423;48.722;9.350;2023-02-26T03:09:11;3.60;99.90
14670;DHT22;7423;48.722;9.350;2023-02-26T03:11:38;3.60;99.90
14670;DHT22;7423;48.722;9.350;2023-02-26T03:14:05;3.50;99.90
14670;DHT22;7423;48.722;9.350;2023-02-26T03:30:41;3.40;99.90
14670;DHT22;7423;48.722;9.350;2023-02-26T03:36:36;3.40;99.90
14670;DHT22;7423;48.722;9.350;2023-02-26T03:39:28;3.30;99.90
14670;DHT22;7423;48.722;9.350;2023-02-26T03:42:01;3.30;99.90
14670;DHT22;7423;48.722;9.350;2023-02-26T03:44:36;3.30;99.90
14670;DHT22;7423;48.722;9.350;2023-02-26T03:47:13;3.20;99.90
14670;DHT22;7423;48.722;9.350;2023-02-26T03:49:48;3.20;99.90
14670;DHT22;7423;48.722;9.350;2023-02-26T03:52:23;3.20;99.90
14670;DHT22;7423;48.722;9.350;2023-02-26T03:54:58;3.10;99.90
14670;DHT22;7423;48.722;9.350;2023-02-26T03:57:27;3.10;99.90
14670;DHT22;7423;48.722;9.350;2023-02-26T03:59:55;3.10;99.90
14670;DHT22;7423;48.722;9.350;2023-02-26T04:02:39;3.10;99.90
14670;DHT22;7423;48.722;9.350;2023-02-26T04:05:19;3.10;99.90
14670;DHT22;7423;48.722;9.350;2023-02-26T04:07:49;3.00;99.90
14670;DHT22;7423;48.722;9.350;2023-02-26T04:10:19;3.00;99.90
14670;DHT22;7423;48.722;9.350;2023-02-26T04:12:50;3.00;99.90
14670;DHT22;7423;48.722;9.350;2023-02-26T04:15:17;2.90;99.90
14670;DHT22;7423;48.722;9.350;2023-02-26T04:17:43;2.90;99.90
14670;DHT22;7423;48.722;9.350;2023-02-26T04:20:10;2.90;99.90
14670;DHT22;7423;48.722;9.350;2023-02-26T04:22:37;2.90;99.90
14670;DHT22;7423;48.722;9.350;2023-02-26T04:25:05;2.90;99.90
14670;DHT22;7423;48.722;9.350;2023-02-26T04:27:32;2.90;99.90
14670;DHT22;7423;48.722;9.350;2023-02-26T04:29:59;2.80;99.90
14670;DHT22;7423;48.722;9.350;2023-02-26T04:32:26;2.70;99.90
14670;DHT22;7423;48.722;9.350;2023-02-26T04:34:53;2.70;99.90
14670;DHT22;7423;48.722;9.350;2023-02-26T04:37:19;2.70;99.90
14670;DHT22;7423;48.722;9.350;2023-02-26T04:39:46;2.70;99.90
14670;DHT22;7423;48.722;9.350;2023-02-26T04:42:13;2.70;99.90
14670;DHT22;7423;48.722;9.350;2023-02-26T04:44:40;2.70;99.90
14670;DHT22;7423;48.722;9.350;2023-02-26T04:47:07;2.70;99.90
14670;DHT22;7423;48.722;9.350;2023-02-26T04:49:34;2.70;99.90
14670;DHT22;7423;48.722;9.350;2023-02-26T04:52:01;2.60;99.90
14670;DHT22;7423;48.722;9.350;2023-02-26T04:54:28;2.60;99.90
14670;DHT22;7423;48.722;9.350;2023-02-26T04:56:55;2.60;99.90
14670;DHT22;7423;48.722;9.350;2023-02-26T04:59:22;2.60;99.90
14670;DHT22;7423;48.722;9.350;2023-02-26T05:01:49;2.70;99.90
14670;DHT22;7423;48.722;9.350;2023-02-26T05:04:16;2.60;99.90
14670;DHT22;7423;48.722;9.350;2023-02-26T05:06:43;2.70;99.90
14670;DHT22;7423;48.722;9.350;2023-02-26T05:09:10;2.50;99.90
14670;DHT22;7423;48.722;9.350;2023-02-26T05:11:37;2.60;99.90
14670;DHT22;7423;48.722;9.350;2023-02-26T05:14:03;2.60;99.90
14670;DHT22;7423;48.722;9.350;2023-02-26T05:16:30;2.60;99.90
14670;DHT22;7423;48.722;9.350;2023-02-26T05:18:57;2.60;99.90
14670;DHT22;7423;48.722;9.350;2023-02-26T05:21:24;2.50;99.90
14670;DHT22;7423;48.722;9.350;2023-02-26T05:23:51;2.50;99.90
14670;DHT22;7423;48.722;9.350;2023-02-26T05:26:18;2.50;99.90
14670;DHT22;7423;48.722;9.350;2023-02-26T05:28:45;2.50;99.90
14670;DHT22;7423;48.722;9.350;2023-02-26T05:31:12;2.50;99.90
14670;DHT22;7423;48.722;9.350;2023-02-26T05:33:40;2.40;99.90
14670;DHT22;7423;48.722;9.350;2023-02-26T05:36:07;2.40;99.90
14670;DHT22;7423;48.722;9.350;2023-02-26T05:38:34;2.40;99.90
14670;DHT22;7423;48.722;9.350;2023-02-26T05:41:01;2.30;99.90
14670;DHT22;7423;48.722;9.350;2023-02-26T05:43:28;2.40;99.90
14670;DHT22;7423;48.722;9.350;2023-02-26T05:45:55;2.40;99.90
14670;DHT22;7423;48.722;9.350;2023-02-26T05:48:23;2.30;99.90
14670;DHT22;7423;48.722;9.350;2023-02-26T05:50:50;2.30;99.90
14670;DHT22;7423;48.722;9.350;2023-02-26T05:53:17;2.30;99.90
14670;DHT22;7423;48.722;9.350;2023-02-26T05:55:44;2.20;99.90
14670;DHT22;7423;48.722;9.350;2023-02-26T05:58:11;2.20;99.90
14670;DHT22;7423;48.722;9.350;2023-02-26T06:00:38;2.20;99.90
14670;DHT22;7423;48.722;9.350;2023-02-26T06:03:05;2.20;99.90
14670;DHT22;7423;48.722;9.350;2023-02-26T06:05:32;2.20;99.90
14670;DHT22;7423;48.722;9.350;2023-02-26T06:08:02;2.20;99.90
14670;DHT22;7423;48.722;9.350;2023-02-26T06:10:30;2.20;99.90
14670;DHT22;7423;48.722;9.350;2023-02-26T06:12:57;2.10;99.90
14670;DHT22;7423;48.722;9.350;2023-02-26T06:15:24;2.00;99.90
14670;DHT22;7423;48.722;9.350;2023-02-26T06:17:51;2.00;99.90
14670;DHT22;7423;48.722;9.350;2023-02-26T06:20:18;2.00;99.90
14670;DHT22;7423;48.722;9.350;2023-02-26T06:22:45;2.00;99.90
14670;DHT22;7423;48.722;9.350;2023-02-26T06:25:12;2.00;99.90
14670;DHT22;7423;48.722;9.350;2023-02-26T06:27:39;2.00;99.90
14670;DHT22;7423;48.722;9.350;2023-02-26T06:30:06;2.00;99.90
14670;DHT22;7423;48.722;9.350;2023-02-26T06:32:33;2.00;99.90
14670;DHT22;7423;48.722;9.350;2023-02-26T06:35:00;1.90;99.90
14670;DHT22;7423;48.722;9.350;2023-02-26T06:37:27;1.90;99.90
14670;DHT22;7423;48.722;9.350;2023-02-26T06:39:54;2.00;99.90
14670;DHT22;7423;48.722;9.350;2023-02-26T06:42:21;2.10;99.90
14670;DHT22;7423;48.722;9.350;2023-02-26T06:44:48;2.10;99.90
14670;DHT22;7423;48.722;9.350;2023-02-26T06:47:15;2.10;99.90
14670;DHT22;7423;48.722;9.350;2023-02-26T06:49:42;2.00;99.90
14670;DHT22;7423;48.722;9.350;2023-02-26T06:52:08;2.00;99.90
14670;DHT22;7423;48.722;9.350;2023-02-26T06:54:35;2.10;99.90
14670;DHT22;7423;48.722;9.350;2023-02-26T06:57:02;2.10;99.90
14670;DHT22;7423;48.722;9.350;2023-02-26T06:59:29;2.10;99.90
14670;DHT22;7423;48.722;9.350;2023-02-26T07:01:56;2.10;99.90
14670;DHT22;7423;48.722;9.350;2023-02-26T07:04:23;2.20;99.90
14670;DHT22;7423;48.722;9.350;2023-02-26T07:06:50;2.20;99.90
14670;DHT22;7423;48.722;9.350;2023-02-26T07:09:17;2.10;99.90
14670;DHT22;7423;48.722;9.350;2023-02-26T07:11:45;2.00;99.90
14670;DHT22;7423;48.722;9.350;2023-02-26T07:14:12;2.00;99.90
14670;DHT22;7423;48.722;9.350;2023-02-26T07:16:39;2.00;99.90
14670;DHT22;7423;48.722;9.350;2023-02-26T07:19:06;2.00;99.90
14670;DHT22;7423;48.722;9.350;2023-02-26T07:21:33;2.00;99.90
14670;DHT22;7423;48.722;9.350;2023-02-26T07:24:00;2.10;99.90
14670;DHT22;7423;48.722;9.350;2023-02-26T07:26:27;2.10;99.90
14670;DHT22;7423;48.722;9.350;2023-02-26T07:28:54;2.10;99.90
14670;DHT22;7423;48.722;9.350;2023-02-26T07:31:21;2.10;99.90
14670;DHT22;7423;48.722;9.350;2023-02-26T07:33:48;2.20;99.90
14670;DHT22;7423;48.722;9.350;2023-02-26T07:36:15;2.20;99.90
14670;DHT22;7423;48.722;9.350;2023-02-26T07:38:42;2.20;99.90
14670;DHT22;7423;48.722;9.350;2023-02-26T07:41:09;2.30;99.90
14670;DHT22;7423;48.722;9.350;2023-02-26T07:43:36;2.30;99.90
14670;DHT22;7423;48.722;9.350;2023-02-26T07:46:04;2.30;99.90
14670;DHT22;7423;48.722;9.350;2023-02-26T07:48:30;2.40;99.90
14670;DHT22;7423;48.722;9.350;2023-02-26T07:50:57;2.40;99.90
14670;DHT22;7423;48.722;9.350;2023-02-26T07:53:24;2.40;99.90
14670;DHT22;7423;48.722;9.350;2023-02-26T07:55:51;2.50;99.90
14670;DHT22;7423;48.722;9.350;2023-02-26T07:58:18;2.40;99.90
14670;DHT22;7423;48.722;9.350;2023-02-26T08:00:45;2.50;99.90
14670;DHT22;7423;48.722;9.350;2023-02-26T08:03:13;2.40;99.90
14670;DHT22;7423;48.722;9.350;2023-02-26T08:05:41;2.40;99.90
14670;DHT22;7423;48.722;9.350;2023-02-26T08:08:08;2.50;99.90
14670;DHT22;7423;48.722;9.350;2023-02-26T08:10:35;2.50;99.90
14670;DHT22;7423;48.722;9.350;2023-02-26T08:13:02;2.50;99.90
14670;DHT22;7423;48.722;9.350;2023-02-26T08:15:29;2.60;99.90
14670;DHT22;7423;48.722;9.350;2023-02-26T08:17:56;2.60;99.90
14670;DHT22;7423;48.722;9.350;2023-02-26T08:20:23;2.60;99.90
14670;DHT22;7423;48.722;9.350;2023-02-26T08:22:50;2.60;99.90
14670;DHT22;7423;48.722;9.350;2023-02-26T08:25:18;2.70;99.90
14670;DHT22;7423;48.722;9.350;2023-02-26T08:27:44;2.70;99.90
14670;DHT22;7423;48.722;9.350;2023-02-26T08:30:12;2.50;99.90
14670;DHT22;7423;48.722;9.350;2023-02-26T08:32:39;2.60;99.90
14670;DHT22;7423;48.722;9.350;2023-02-26T08:35:08;2.70;99.90
14670;DHT22;7423;48.722;9.350;2023-02-26T08:37:36;2.80;99.90
14670;DHT22;7423;48.722;9.350;2023-02-26T08:40:06;2.90;99.90
14670;DHT22;7423;48.722;9.350;2023-02-26T08:42:35;2.90;99.90
14670;DHT22;7423;48.722;9.350;2023-02-26T08:45:02;2.80;99.90
14670;DHT22;7423;48.722;9.350;2023-02-26T08:47:29;2.60;99.90
14670;DHT22;7423;48.722;9.350;2023-02-26T08:49:56;2.50;99.90
14670;DHT22;7423;48.722;9.350;2023-02-26T08:52:24;2.50;99.90
14670;DHT22;7423;48.722;9.350;2023-02-26T08:54:52;2.70;99.90
14670;DHT22;7423;48.722;9.350;2023-02-26T08:57:19;2.70;99.90
14670;DHT22;7423;48.722;9.350;2023-02-26T08:59:46;2.90;99.90
14670;DHT22;7423;48.722;9.350;2023-02-26T09:02:13;3.00;99.90
14670;DHT22;7423;48.722;9.350;2023-02-26T09:04:40;2.80;99.90
14670;DHT22;7423;48.722;9.350;2023-02-26T09:07:07;2.70;99.90
14670;DHT22;7423;48.722;9.350;2023-02-26T09:09:34;2.70;99.90
14670;DHT22;7423;48.722;9.350;2023-02-26T09:12:01;2.80;99.90
14670;DHT22;7423;48.722;9.350;2023-02-26T09:14:28;2.90;99.90
14670;DHT22;7423;48.722;9.350;2023-02-26T09:16:55;3.00;99.90
14670;DHT22;7423;48.722;9.350;2023-02-26T09:19:22;3.10;99.90
14670;DHT22;7423;48.722;9.350;2023-02-26T09:21:49;3.20;99.90
14670;DHT22;7423;48.722;9.350;2023-02-26T09:24:16;3.30;99.90
14670;DHT22;7423;48.722;9.350;2023-02-26T09:26:43;3.40;99.90
14670;DHT22;7423;48.722;9.350;2023-02-26T09:29:10;3.50;99.90
14670;DHT22;7423;48.722;9.350;2023-02-26T09:31:39;3.50;99.90
14670;DHT22;7423;48.722;9.350;2023-02-26T09:34:06;3.50;99.90
14670;DHT22;7423;48.722;9.350;2023-02-26T09:36:35;3.50;99.90
14670;DHT22;7423;48.722;9.350;2023-02-26T09:39:03;3.40;99.90
14670;DHT22;7423;48.722;9.350;2023-02-26T09:41:40;3.50;99.90
14670;DHT22;7423;48.722;9.350;2023-02-26T09:44:12;3.60;99.90
14670;DHT22;7423;48.722;9.350;2023-02-26T09:46:46;3.70;99.90
14670;DHT22;7423;48.722;9.350;2023-02-26T09:50:05;3.80;99.90
14670;DHT22;7423;48.722;9.350;2023-02-26T09:55:13;3.80;99.90
14670;DHT22;7423;48.722;9.350;2023-02-26T09:57:45;3.80;99.90
14670;DHT22;7423;48.722;9.350;2023-02-26T10:00:40;3.90;99.90
14670;DHT22;7423;48.722;9.350;2023-02-26T10:12:24;4.00;99.90
14670;DHT22;7423;48.722;9.350;2023-02-26T10:18:18;4.00;99.90
14670;DHT22;7423;48.722;9.350;2023-02-26T10:23:58;3.90;99.90
14670;DHT22;7423;48.722;9.350;2023-02-26T10:26:35;3.90;99.90
14670;DHT22;7423;48.722;9.350;2023-02-26T10:29:20;4.00;99.90
14670;DHT22;7423;48.722;9.350;2023-02-26T10:32:20;4.00;99.90
14670;DHT22;7423;48.722;9.350;2023-02-26T10:37:58;4.00;99.90
14670;DHT22;7423;48.722;9.350;2023-02-26T10:40:52;4.00;99.90
14670;DHT22;7423;48.722;9.350;2023-02-26T10:43:27;3.90;99.90
14670;DHT22;7423;48.722;9.350;2023-02-26T10:49:00;3.70;99.90
14670;DHT22;7423;48.722;9.350;2023-02-26T10:51:34;3.90;99.90
14670;DHT22;7423;48.722;9.350;2023-02-26T10:54:16;4.10;99.90
14670;DHT22;7423;48.722;9.350;2023-02-26T10:56:46;4.20;99.90
14670;DHT22;7423;48.722;9.350;2023-02-26T10:59:14;4.20;99.90
14670;DHT22;7423;48.722;9.350;2023-02-26T11:01:42;4.20;99.90
14670;DHT22;7423;48.722;9.350;2023-02-26T11:04:15;4.20;99.90
14670;DHT22;7423;48.722;9.350;2023-02-26T11:06:56;4.00;99.90
14670;DHT22;7423;48.722;9.350;2023-02-26T11:09:34;4.20;99.90
14670;DHT22;7423;48.722;9.350;2023-02-26T11:14:39;4.60;99.90
14670;DHT22;7423;48.722;9.350;2023-02-26T11:17:17;4.70;99.90
14670;DHT22;7423;48.722;9.350;2023-02-26T11:20:00;4.70;99.90
14670;DHT22;7423;48.722;9.350;2023-02-26T11:22:33;4.60;99.90
14670;DHT22;7423;48.722;9.350;2023-02-26T11:25:02;4.50;99.90
14670;DHT22;7423;48.722;9.350;2023-02-26T11:27:35;4.60;99.90
14670;DHT22;7423;48.722;9.350;2023-02-26T11:32:49;4.90;99.90
14670;DHT22;7423;48.722;9.350;2023-02-26T11:35:19;4.90;99.90
14670;DHT22;7423;48.722;9.350;2023-02-26T11:38:00;5.00;99.90
14670;DHT22;7423;48.722;9.350;2023-02-26T11:43:05;5.10;99.90
14670;DHT22;7423;48.722;9.350;2023-02-26T11:45:36;5.10;99.90
14670;DHT22;7423;48.722;9.350;2023-02-26T11:48:06;5.00;99.90
14670;DHT22;7423;48.722;9.350;2023-02-26T11:50:45;5.10;99.90
14670;DHT22;7423;48.722;9.350;2023-02-26T11:53:19;5.20;99.90
14670;DHT22;7423;48.722;9.350;2023-02-26T11:55:59;5.30;99.90
14670;DHT22;7423;48.722;9.350;2023-02-26T11:58:34;5.20;99.90
14670;DHT22;7423;48.722;9.350;2023-02-26T12:01:06;5.10;99.90
14670;DHT22;7423;48.722;9.350;2023-02-26T12:03:37;5.10;99.90
14670;DHT22;7423;48.722;9.350;2023-02-26T12:06:16;5.10;99.90
14670;DHT22;7423;48.722;9.350;2023-02-26T12:08:44;5.20;99.90
14670;DHT22;7423;48.722;9.350;2023-02-26T12:20:17;5.00;99.90
14670;DHT22;7423;48.722;9.350;2023-02-26T12:22:48;5.00;99.90
14670;DHT22;7423;48.722;9.350;2023-02-26T12:25:21;5.00;99.90
14670;DHT22;7423;48.722;9.350;2023-02-26T12:43:38;5.20;99.90
14670;DHT22;7423;48.722;9.350;2023-02-26T12:46:21;5.10;99.90
14670;DHT22;7423;48.722;9.350;2023-02-26T12:58:05;5.10;99.90
14670;DHT22;7423;48.722;9.350;2023-02-26T13:00:44;5.10;99.90
14670;DHT22;7423;48.722;9.350;2023-02-26T13:12:28;5.30;99.90
14670;DHT22;7423;48.722;9.350;2023-02-26T13:15:27;5.20;99.90
14670;DHT22;7423;48.722;9.350;2023-02-26T13:18:23;5.20;99.90
14670;DHT22;7423;48.722;9.350;2023-02-26T13:21:03;5.20;99.90
14670;DHT22;7423;48.722;9.350;2023-02-26T13:23:51;5.10;99.90
14670;DHT22;7423;48.722;9.350;2023-02-26T13:26:22;5.00;99.90
14670;DHT22;7423;48.722;9.350;2023-02-26T13:29:04;5.00;99.90
14670;DHT22;7423;48.722;9.350;2023-02-26T13:37:02;4.80;99.90
14670;DHT22;7423;48.722;9.350;2023-02-26T13:51:52;5.10;99.90
14670;DHT22;7423;48.722;9.350;2023-02-26T13:57:07;5.50;99.90
14670;DHT22;7423;48.722;9.350;2023-02-26T13:59:47;5.40;99.90
14670;DHT22;7423;48.722;9.350;2023-02-26T14:02:57;4.90;99.90
14670;DHT22;7423;48.722;9.350;2023-02-26T14:19:41;5.60;99.90
14670;DHT22;7423;48.722;9.350;2023-02-26T14:25:37;5.60;99.90
14670;DHT22;7423;48.722;9.350;2023-02-26T14:31:07;5.70;99.90
14670;DHT22;7423;48.722;9.350;2023-02-26T14:34:20;5.60;99.90
14670;DHT22;7423;48.722;9.350;2023-02-26T14:37:00;5.80;99.90
14670;DHT22;7423;48.722;9.350;2023-02-26T14:43:05;5.80;99.90
14670;DHT22;7423;48.722;9.350;2023-02-26T14:45:38;6.00;99.90
14670;DHT22;7423;48.722;9.350;2023-02-26T14:48:13;6.10;99.90
14670;DHT22;7423;48.722;9.350;2023-02-26T14:57:18;7.10;99.90
14670;DHT22;7423;48.722;9.350;2023-02-26T15:03:32;5.60;99.90
14670;DHT22;7423;48.722;9.350;2023-02-26T15:08:45;5.70;99.90
14670;DHT22;7423;48.722;9.350;2023-02-26T15:11:51;5.90;99.90
14670;DHT22;7423;48.722;9.350;2023-02-26T15:15:12;6.00;99.90
14670;DHT22;7423;48.722;9.350;2023-02-26T15:18:15;6.00;99.90
14670;DHT22;7423;48.722;9.350;2023-02-26T15:26:16;5.50;99.90
14670;DHT22;7423;48.722;9.350;2023-02-26T15:28:49;5.60;99.90
14670;DHT22;7423;48.722;9.350;2023-02-26T15:31:20;5.70;99.90
14670;DHT22;7423;48.722;9.350;2023-02-26T15:33:54;5.80;99.90
14670;DHT22;7423;48.722;9.350;2023-02-26T15:36:22;5.80;99.90
14670;DHT22;7423;48.722;9.350;2023-02-26T15:38:56;5.70;99.90
14670;DHT22;7423;48.722;9.350;2023-02-26T15:41:28;5.80;99.90
14670;DHT22;7423;48.722;9.350;2023-02-26T15:44:09;5.90;99.90
14670;DHT22;7423;48.722;9.350;2023-02-26T15:46:44;5.90;99.90
14670;DHT22;7423;48.722;9.350;2023-02-26T15:49:24;5.80;99.90
14670;DHT22;7423;48.722;9.350;2023-02-26T15:51:55;5.70;99.90
14670;DHT22;7423;48.722;9.350;2023-02-26T15:54:30;5.50;99.90
14670;DHT22;7423;48.722;9.350;2023-02-26T15:57:01;5.40;99.90
14670;DHT22;7423;48.722;9.350;2023-02-26T15:59:30;5.60;99.90
14670;DHT22;7423;48.722;9.350;2023-02-26T16:02:01;5.70;99.90
14670;DHT22;7423;48.722;9.350;2023-02-26T16:04:28;5.70;99.90
14670;DHT22;7423;48.722;9.350;2023-02-26T16:06:56;5.90;99.90
14670;DHT22;7423;48.722;9.350;2023-02-26T16:09:35;5.90;99.90
14670;DHT22;7423;48.722;9.350;2023-02-26T16:12:16;6.00;99.90
14670;DHT22;7423;48.722;9.350;2023-02-26T16:15:23;6.10;99.90
14670;DHT22;7423;48.722;9.350;2023-02-26T16:17:44;6.10;99.90
14670;DHT22;7423;48.722;9.350;2023-02-26T16:20:20;6.00;99.90
14670;DHT22;7423;48.722;9.350;2023-02-26T16:22:52;5.80;99.90
14670;DHT22;7423;48.722;9.350;2023-02-26T16:25:38;5.80;99.90
14670;DHT22;7423;48.722;9.350;2023-02-26T16:28:15;5.60;99.70
14670;DHT22;7423;48.722;9.350;2023-02-26T16:30:48;5.70;99.60
14670;DHT22;7423;48.722;9.350;2023-02-26T16:33:21;5.70;99.70
14670;DHT22;7423;48.722;9.350;2023-02-26T16:38:31;6.00;99.90
14670;DHT22;7423;48.722;9.350;2023-02-26T16:41:10;5.90;99.20
14670;DHT22;7423;48.722;9.350;2023-02-26T16:46:13;5.50;99.90
14670;DHT22;7423;48.722;9.350;2023-02-26T16:48:53;5.40;99.40
14670;DHT22;7423;48.722;9.350;2023-02-26T16:51:24;5.50;99.90
14670;DHT22;7423;48.722;9.350;2023-02-26T16:54:13;5.50;99.40
14670;DHT22;7423;48.722;9.350;2023-02-26T16:56:45;5.40;99.80
14670;DHT22;7423;48.722;9.350;2023-02-26T16:59:15;5.50;99.90
14670;DHT22;7423;48.722;9.350;2023-02-26T17:04:33;5.70;99.10
14670;DHT22;7423;48.722;9.350;2023-02-26T17:07:01;5.70;99.40
14670;DHT22;7423;48.722;9.350;2023-02-26T17:12:12;5.50;98.80
14670;DHT22;7423;48.722;9.350;2023-02-26T17:14:46;4.90;99.00
14670;DHT22;7423;48.722;9.350;2023-02-26T17:17:19;4.50;99.50
14670;DHT22;7423;48.722;9.350;2023-02-26T17:19:45;4.60;99.80
14670;DHT22;7423;48.722;9.350;2023-02-26T17:22:15;4.60;99.90
14670;DHT22;7423;48.722;9.350;2023-02-26T17:24:44;4.80;99.90
14670;DHT22;7423;48.722;9.350;2023-02-26T17:27:23;4.80;99.60
14670;DHT22;7423;48.722;9.350;2023-02-26T17:29:57;4.70;99.60
14670;DHT22;7423;48.722;9.350;2023-02-26T17:32:26;4.70;99.60
14670;DHT22;7423;48.722;9.350;2023-02-26T17:34:53;4.70;99.10
14670;DHT22;7423;48.722;9.350;2023-02-26T17:37:21;4.70;99.80
14670;DHT22;7423;48.722;9.350;2023-02-26T17:39:50;4.70;99.60
14670;DHT22;7423;48.722;9.350;2023-02-26T17:42:18;4.70;99.30
14670;DHT22;7423;48.722;9.350;2023-02-26T17:44:47;4.60;99.60
14670;DHT22;7423;48.722;9.350;2023-02-26T17:47:20;4.80;99.90
14670;DHT22;7423;48.722;9.350;2023-02-26T17:49:52;4.90;99.20
14670;DHT22;7423;48.722;9.350;2023-02-26T17:52:19;4.70;99.10
14670;DHT22;7423;48.722;9.350;2023-02-26T17:54:46;4.80;99.70
14670;DHT22;7423;48.722;9.350;2023-02-26T17:57:19;4.90;99.20
14670;DHT22;7423;48.722;9.350;2023-02-26T17:59:47;4.80;99.20
14670;DHT22;7423;48.722;9.350;2023-02-26T18:02:23;4.60;98.90
14670;DHT22;7423;48.722;9.350;2023-02-26T18:04:53;4.60;99.70
14670;DHT22;7423;48.722;9.350;2023-02-26T18:07:20;4.60;98.90
14670;DHT22;7423;48.722;9.350;2023-02-26T18:09:49;4.70;99.60
14670;DHT22;7423;48.722;9.350;2023-02-26T18:12:18;4.80;99.20
14670;DHT22;7423;48.722;9.350;2023-02-26T18:14:47;4.80;99.20
14670;DHT22;7423;48.722;9.350;2023-02-26T18:17:18;4.90;99.30
14670;DHT22;7423;48.722;9.350;2023-02-26T18:19:48;5.00;99.20
14670;DHT22;7423;48.722;9.350;2023-02-26T18:22:17;5.10;99.20
14670;DHT22;7423;48.722;9.350;2023-02-26T18:24:45;4.90;98.70
14670;DHT22;7423;48.722;9.350;2023-02-26T18:27:14;4.80;98.80
14670;DHT22;7423;48.722;9.350;2023-02-26T18:29:42;4.70;98.70
14670;DHT22;7423;48.722;9.350;2023-02-26T18:32:20;4.60;99.40
14670;DHT22;7423;48.722;9.350;2023-02-26T18:34:49;4.70;99.00
14670;DHT22;7423;48.722;9.350;2023-02-26T18:37:19;4.70;98.90
14670;DHT22;7423;48.722;9.350;2023-02-26T18:39:47;4.60;99.10
14670;DHT22;7423;48.722;9.350;2023-02-26T18:42:25;4.60;98.90
14670;DHT22;7423;48.722;9.350;2023-02-26T18:44:53;4.50;99.10
14670;DHT22;7423;48.722;9.350;2023-02-26T18:47:21;4.40;98.90
14670;DHT22;7423;48.722;9.350;2023-02-26T18:49:49;4.40;99.10
14670;DHT22;7423;48.722;9.350;2023-02-26T18:52:17;4.40;99.50
14670;DHT22;7423;48.722;9.350;2023-02-26T18:54:44;4.50;99.50
14670;DHT22;7423;48.722;9.350;2023-02-26T18:57:10;4.50;99.00
14670;DHT22;7423;48.722;9.350;2023-02-26T18:59:38;4.40;99.00
14670;DHT22;7423;48.722;9.350;2023-02-26T19:02:05;4.40;99.40
14670;DHT22;7423;48.722;9.350;2023-02-26T19:04:33;4.50;99.50
14670;DHT22;7423;48.722;9.350;2023-02-26T19:07:00;4.60;99.40
14670;DHT22;7423;48.722;9.350;2023-02-26T19:09:27;4.70;99.60
14670;DHT22;7423;48.722;9.350;2023-02-26T19:11:55;4.70;99.40
14670;DHT22;7423;48.722;9.350;2023-02-26T19:14:24;4.70;99.70
14670;DHT22;7423;48.722;9.350;2023-02-26T19:16:51;4.70;99.20
14670;DHT22;7423;48.722;9.350;2023-02-26T19:19:18;4.70;99.60
14670;DHT22;7423;48.722;9.350;2023-02-26T19:21:46;4.70;99.40
14670;DHT22;7423;48.722;9.350;2023-02-26T19:24:14;4.80;99.30
14670;DHT22;7423;48.722;9.350;2023-02-26T19:26:42;4.60;99.30
14670;DHT22;7423;48.722;9.350;2023-02-26T19:29:13;4.60;99.30
14670;DHT22;7423;48.722;9.350;2023-02-26T19:31:42;4.40;99.50
14670;DHT22;7423;48.722;9.350;2023-02-26T19:34:10;4.10;99.70
14670;DHT22;7423;48.722;9.350;2023-02-26T19:36:37;3.90;99.90
14670;DHT22;7423;48.722;9.350;2023-02-26T19:39:08;3.80;99.90